sensor_id;sensor_type;location;lat;lon;timestamp;P1;durP1;ratioP1;P2;durP2;ratioP2
80253;SDS011;69563;37.974;23.708;2023-07-29T00:01:59;5.53;;;2.63;;
80253;SDS011;69563;37.974;23.708;2023-07-29T00:04:25;6.43;;;2.78;;
80253;SDS011;69563;37.974;23.708;2023-07-29T00:06:51;5.07;;;2.70;;
80253;SDS011;69563;37.974;23.708;2023-07-29T00:09:16;7.15;;;2.47;;
80253;SDS011;69563;37.974;23.708;2023-07-29T00:11:42;4.93;;;2.70;;
80253;SDS011;69563;37.974;23.708;2023-07-29T00:14:08;4.78;;;2.65;;
80253;SDS011;69563;37.974;23.708;2023-07-29T00:16:33;5.13;;;2.40;;
80253;SDS011;69563;37.974;23.708;2023-07-29T00:18:59;5.35;;;2.80;;
80253;SDS011;69563;37.974;23.708;2023-07-29T00:21:25;5.55;;;2.63;;
80253;SDS011;69563;37.974;23.708;2023-07-29T00:23:50;9.15;;;2.58;;
80253;SDS011;69563;37.974;23.708;2023-07-29T00:26:16;4.03;;;2.50;;
80253;SDS011;69563;37.974;23.708;2023-07-29T00:28:42;5.53;;;2.58;;
80253;SDS011;69563;37.974;23.708;2023-07-29T00:31:08;12.25;;;2.80;;
80253;SDS011;69563;37.974;23.708;2023-07-29T00:33:33;5.72;;;2.80;;
80253;SDS011;69563;37.974;23.708;2023-07-29T00:35:59;4.88;;;2.67;;
80253;SDS011;69563;37.974;23.708;2023-07-29T00:38:28;7.78;;;2.80;;
80253;SDS011;69563;37.974;23.708;2023-07-29T00:40:54;5.30;;;2.38;;
80253;SDS011;69563;37.974;23.708;2023-07-29T00:43:22;8.00;;;3.00;;
80253;SDS011;69563;37.974;23.708;2023-07-29T00:45:47;4.78;;;2.85;;
80253;SDS011;69563;37.974;23.708;2023-07-29T00:48:14;5.82;;;2.88;;
80253;SDS011;69563;37.974;23.708;2023-07-29T00:50:40;5.10;;;2.47;;
80253;SDS011;69563;37.974;23.708;2023-07-29T00:53:06;5.32;;;2.80;;
80253;SDS011;69563;37.974;23.708;2023-07-29T00:55:32;8.63;;;2.90;;
80253;SDS011;69563;37.974;23.708;2023-07-29T00:57:58;7.57;;;2.90;;
80253;SDS011;69563;37.974;23.708;2023-07-29T01:00:24;6.50;;;3.05;;
80253;SDS011;69563;37.974;23.708;2023-07-29T01:02:52;10.02;;;3.13;;
80253;SDS011;69563;37.974;23.708;2023-07-29T01:05:19;11.38;;;3.67;;
80253;SDS011;69563;37.974;23.708;2023-07-29T01:13:19;10.32;;;3.80;;
80253;SDS011;69563;37.974;23.708;2023-07-29T01:15:55;9.07;;;3.33;;
80253;SDS011;69563;37.974;23.708;2023-07-29T01:18:31;7.53;;;3.67;;
80253;SDS011;69563;37.974;23.708;2023-07-29T01:21:03;7.07;;;4.10;;
80253;SDS011;69563;37.974;23.708;2023-07-29T01:23:35;9.32;;;4.07;;
80253;SDS011;69563;37.974;23.708;2023-07-29T01:26:02;8.73;;;3.90;;
80253;SDS011;69563;37.974;23.708;2023-07-29T01:28:29;10.75;;;3.85;;
80253;SDS011;69563;37.974;23.708;2023-07-29T01:31:01;8.50;;;4.18;;
80253;SDS011;69563;37.974;23.708;2023-07-29T01:33:50;7.65;;;4.03;;
80253;SDS011;69563;37.974;23.708;2023-07-29T01:36:22;7.57;;;3.53;;
80253;SDS011;69563;37.974;23.708;2023-07-29T01:38:53;9.05;;;4.20;;
80253;SDS011;69563;37.974;23.708;2023-07-29T01:41:21;6.70;;;3.95;;
80253;SDS011;69563;37.974;23.708;2023-07-29T01:43:49;10.80;;;3.40;;
80253;SDS011;69563;37.974;23.708;2023-07-29T01:46:15;8.93;;;4.30;;
80253;SDS011;69563;37.974;23.708;2023-07-29T01:48:41;8.30;;;4.18;;
80253;SDS011;69563;37.974;23.708;2023-07-29T01:51:07;9.40;;;4.40;;
80253;SDS011;69563;37.974;23.708;2023-07-29T01:53:36;11.70;;;4.35;;
80253;SDS011;69563;37.974;23.708;2023-07-29T01:56:02;8.02;;;3.88;;
80253;SDS011;69563;37.974;23.708;2023-07-29T01:58:27;9.65;;;3.78;;
80253;SDS011;69563;37.974;23.708;2023-07-29T02:00:53;8.35;;;4.03;;
80253;SDS011;69563;37.974;23.708;2023-07-29T02:03:19;7.05;;;3.95;;
80253;SDS011;69563;37.974;23.708;2023-07-29T02:05:44;11.25;;;3.92;;
80253;SDS011;69563;37.974;23.708;2023-07-29T02:08:10;7.78;;;3.85;;
80253;SDS011;69563;37.974;23.708;2023-07-29T02:10:36;7.85;;;4.05;;
80253;SDS011;69563;37.974;23.708;2023-07-29T02:13:02;13.38;;;4.43;;
80253;SDS011;69563;37.974;23.708;2023-07-29T02:15:29;7.88;;;4.10;;
80253;SDS011;69563;37.974;23.708;2023-07-29T02:17:55;8.65;;;4.10;;
80253;SDS011;69563;37.974;23.708;2023-07-29T02:20:20;8.23;;;4.20;;
80253;SDS011;69563;37.974;23.708;2023-07-29T02:22:46;9.32;;;4.20;;
80253;SDS011;69563;37.974;23.708;2023-07-29T02:25:13;7.22;;;3.88;;
80253;SDS011;69563;37.974;23.708;2023-07-29T02:27:39;8.93;;;3.92;;
80253;SDS011;69563;37.974;23.708;2023-07-29T02:30:05;8.02;;;4.15;;
80253;SDS011;69563;37.974;23.708;2023-07-29T02:32:31;9.32;;;3.80;;
80253;SDS011;69563;37.974;23.708;2023-07-29T02:34:57;9.55;;;4.20;;
80253;SDS011;69563;37.974;23.708;2023-07-29T02:37:23;7.70;;;4.57;;
80253;SDS011;69563;37.974;23.708;2023-07-29T02:39:48;15.27;;;4.72;;
80253;SDS011;69563;37.974;23.708;2023-07-29T02:42:14;8.43;;;4.50;;
80253;SDS011;69563;37.974;23.708;2023-07-29T02:44:40;9.75;;;4.18;;
80253;SDS011;69563;37.974;23.708;2023-07-29T02:47:06;8.25;;;4.10;;
80253;SDS011;69563;37.974;23.708;2023-07-29T02:49:31;7.03;;;4.10;;
80253;SDS011;69563;37.974;23.708;2023-07-29T02:51:57;11.23;;;4.68;;
80253;SDS011;69563;37.974;23.708;2023-07-29T02:54:23;8.85;;;4.30;;
80253;SDS011;69563;37.974;23.708;2023-07-29T02:56:49;8.23;;;3.97;;
80253;SDS011;69563;37.974;23.708;2023-07-29T02:59:15;9.57;;;4.38;;
80253;SDS011;69563;37.974;23.708;2023-07-29T03:01:41;11.70;;;4.70;;
80253;SDS011;69563;37.974;23.708;2023-07-29T03:04:07;10.05;;;4.40;;
80253;SDS011;69563;37.974;23.708;2023-07-29T03:06:33;9.43;;;4.15;;
80253;SDS011;69563;37.974;23.708;2023-07-29T03:08:58;9.85;;;4.30;;
80253;SDS011;69563;37.974;23.708;2023-07-29T03:11:24;10.65;;;4.35;;
80253;SDS011;69563;37.974;23.708;2023-07-29T03:13:50;6.47;;;4.13;;
80253;SDS011;69563;37.974;23.708;2023-07-29T03:16:16;11.27;;;4.40;;
80253;SDS011;69563;37.974;23.708;2023-07-29T03:18:43;9.23;;;4.40;;
80253;SDS011;69563;37.974;23.708;2023-07-29T03:21:10;8.00;;;4.38;;
80253;SDS011;69563;37.974;23.708;2023-07-29T03:23:36;10.32;;;4.30;;
80253;SDS011;69563;37.974;23.708;2023-07-29T03:26:03;10.20;;;4.80;;
80253;SDS011;69563;37.974;23.708;2023-07-29T03:28:36;7.95;;;4.38;;
80253;SDS011;69563;37.974;23.708;2023-07-29T03:31:06;9.82;;;4.35;;
80253;SDS011;69563;37.974;23.708;2023-07-29T03:33:32;7.18;;;4.18;;
80253;SDS011;69563;37.974;23.708;2023-07-29T03:35:58;6.05;;;3.70;;
80253;SDS011;69563;37.974;23.708;2023-07-29T03:38:24;10.95;;;4.50;;
80253;SDS011;69563;37.974;23.708;2023-07-29T03:40:50;10.60;;;4.55;;
80253;SDS011;69563;37.974;23.708;2023-07-29T03:43:16;11.18;;;4.53;;
80253;SDS011;69563;37.974;23.708;2023-07-29T03:45:42;16.10;;;4.70;;
80253;SDS011;69563;37.974;23.708;2023-07-29T03:48:07;10.15;;;5.05;;
80253;SDS011;69563;37.974;23.708;2023-07-29T03:50:34;9.60;;;4.35;;
80253;SDS011;69563;37.974;23.708;2023-07-29T03:53:01;13.35;;;5.13;;
80253;SDS011;69563;37.974;23.708;2023-07-29T03:55:28;8.10;;;3.90;;
80253;SDS011;69563;37.974;23.708;2023-07-29T03:57:57;9.50;;;4.53;;
80253;SDS011;69563;37.974;23.708;2023-07-29T04:00:23;8.85;;;4.57;;
80253;SDS011;69563;37.974;23.708;2023-07-29T04:02:49;7.07;;;3.80;;
80253;SDS011;69563;37.974;23.708;2023-07-29T04:05:15;14.00;;;4.60;;
80253;SDS011;69563;37.974;23.708;2023-07-29T04:07:41;10.18;;;4.70;;
80253;SDS011;69563;37.974;23.708;2023-07-29T04:10:07;6.85;;;3.63;;
80253;SDS011;69563;37.974;23.708;2023-07-29T04:12:33;6.38;;;3.30;;
80253;SDS011;69563;37.974;23.708;2023-07-29T04:14:59;8.45;;;3.60;;
80253;SDS011;69563;37.974;23.708;2023-07-29T04:17:25;5.93;;;3.75;;
80253;SDS011;69563;37.974;23.708;2023-07-29T04:19:50;6.38;;;3.80;;
80253;SDS011;69563;37.974;23.708;2023-07-29T04:22:16;7.25;;;3.65;;
80253;SDS011;69563;37.974;23.708;2023-07-29T04:24:42;7.40;;;3.78;;
80253;SDS011;69563;37.974;23.708;2023-07-29T04:27:08;7.00;;;3.92;;
80253;SDS011;69563;37.974;23.708;2023-07-29T04:29:33;6.88;;;3.70;;
80253;SDS011;69563;37.974;23.708;2023-07-29T04:32:01;8.00;;;3.40;;
80253;SDS011;69563;37.974;23.708;2023-07-29T04:34:27;7.82;;;3.45;;
80253;SDS011;69563;37.974;23.708;2023-07-29T04:36:53;8.52;;;3.33;;
80253;SDS011;69563;37.974;23.708;2023-07-29T04:39:19;11.27;;;3.25;;
80253;SDS011;69563;37.974;23.708;2023-07-29T04:41:45;6.53;;;3.25;;
80253;SDS011;69563;37.974;23.708;2023-07-29T04:44:11;5.93;;;2.83;;
80253;SDS011;69563;37.974;23.708;2023-07-29T04:46:36;7.43;;;3.22;;
80253;SDS011;69563;37.974;23.708;2023-07-29T04:49:03;8.85;;;3.08;;
80253;SDS011;69563;37.974;23.708;2023-07-29T04:51:29;6.55;;;3.05;;
80253;SDS011;69563;37.974;23.708;2023-07-29T04:53:59;6.07;;;2.92;;
80253;SDS011;69563;37.974;23.708;2023-07-29T04:56:25;6.32;;;2.80;;
80253;SDS011;69563;37.974;23.708;2023-07-29T04:58:51;6.93;;;3.05;;
80253;SDS011;69563;37.974;23.708;2023-07-29T05:01:17;5.18;;;2.95;;
80253;SDS011;69563;37.974;23.708;2023-07-29T05:03:43;6.28;;;3.05;;
80253;SDS011;69563;37.974;23.708;2023-07-29T05:06:09;5.80;;;2.75;;
80253;SDS011;69563;37.974;23.708;2023-07-29T05:08:34;4.95;;;2.60;;
80253;SDS011;69563;37.974;23.708;2023-07-29T05:11:00;6.40;;;2.85;;
80253;SDS011;69563;37.974;23.708;2023-07-29T05:13:26;6.60;;;2.78;;
80253;SDS011;69563;37.974;23.708;2023-07-29T05:15:51;9.13;;;2.72;;
80253;SDS011;69563;37.974;23.708;2023-07-29T05:18:17;6.40;;;2.80;;
80253;SDS011;69563;37.974;23.708;2023-07-29T05:20:43;8.05;;;2.67;;
80253;SDS011;69563;37.974;23.708;2023-07-29T05:23:09;8.77;;;3.03;;
80253;SDS011;69563;37.974;23.708;2023-07-29T05:25:34;6.13;;;2.78;;
80253;SDS011;69563;37.974;23.708;2023-07-29T05:28:01;7.40;;;3.10;;
80253;SDS011;69563;37.974;23.708;2023-07-29T05:30:27;6.97;;;2.80;;
80253;SDS011;69563;37.974;23.708;2023-07-29T05:32:56;9.40;;;2.92;;
80253;SDS011;69563;37.974;23.708;2023-07-29T05:35:22;6.05;;;2.90;;
80253;SDS011;69563;37.974;23.708;2023-07-29T05:37:48;8.18;;;3.00;;
80253;SDS011;69563;37.974;23.708;2023-07-29T05:40:14;6.88;;;2.75;;
80253;SDS011;69563;37.974;23.708;2023-07-29T05:42:40;6.47;;;2.80;;
80253;SDS011;69563;37.974;23.708;2023-07-29T05:45:06;7.10;;;2.97;;
80253;SDS011;69563;37.974;23.708;2023-07-29T05:47:32;6.53;;;3.13;;
80253;SDS011;69563;37.974;23.708;2023-07-29T05:49:58;5.65;;;2.83;;
80253;SDS011;69563;37.974;23.708;2023-07-29T05:52:26;8.25;;;2.85;;
80253;SDS011;69563;37.974;23.708;2023-07-29T05:54:52;6.90;;;2.90;;
80253;SDS011;69563;37.974;23.708;2023-07-29T05:57:18;9.05;;;3.05;;
80253;SDS011;69563;37.974;23.708;2023-07-29T05:59:44;6.50;;;3.10;;
80253;SDS011;69563;37.974;23.708;2023-07-29T06:02:09;8.18;;;3.05;;
80253;SDS011;69563;37.974;23.708;2023-07-29T06:04:35;8.00;;;2.80;;
80253;SDS011;69563;37.974;23.708;2023-07-29T06:07:01;7.60;;;3.15;;
80253;SDS011;69563;37.974;23.708;2023-07-29T06:09:26;9.98;;;2.95;;
80253;SDS011;69563;37.974;23.708;2023-07-29T06:11:52;8.45;;;3.05;;
80253;SDS011;69563;37.974;23.708;2023-07-29T06:14:18;6.78;;;3.05;;
80253;SDS011;69563;37.974;23.708;2023-07-29T06:16:43;9.05;;;3.10;;
80253;SDS011;69563;37.974;23.708;2023-07-29T06:19:09;10.80;;;3.05;;
80253;SDS011;69563;37.974;23.708;2023-07-29T06:21:35;7.38;;;3.22;;
80253;SDS011;69563;37.974;23.708;2023-07-29T06:24:01;7.68;;;3.42;;
80253;SDS011;69563;37.974;23.708;2023-07-29T06:26:27;6.88;;;3.03;;
80253;SDS011;69563;37.974;23.708;2023-07-29T06:28:53;8.48;;;3.10;;
80253;SDS011;69563;37.974;23.708;2023-07-29T06:31:19;6.20;;;3.22;;
80253;SDS011;69563;37.974;23.708;2023-07-29T06:33:45;8.35;;;3.20;;
80253;SDS011;69563;37.974;23.708;2023-07-29T06:36:11;5.93;;;2.95;;
80253;SDS011;69563;37.974;23.708;2023-07-29T06:38:37;8.38;;;3.13;;
80253;SDS011;69563;37.974;23.708;2023-07-29T06:41:06;8.43;;;3.40;;
80253;SDS011;69563;37.974;23.708;2023-07-29T06:43:32;7.82;;;2.80;;
80253;SDS011;69563;37.974;23.708;2023-07-29T06:45:57;6.63;;;3.10;;
80253;SDS011;69563;37.974;23.708;2023-07-29T06:48:23;8.50;;;3.00;;
80253;SDS011;69563;37.974;23.708;2023-07-29T06:50:49;6.07;;;3.10;;
80253;SDS011;69563;37.974;23.708;2023-07-29T06:53:20;6.72;;;3.08;;
80253;SDS011;69563;37.974;23.708;2023-07-29T06:55:46;5.55;;;3.17;;
80253;SDS011;69563;37.974;23.708;2023-07-29T06:58:11;7.32;;;3.10;;
80253;SDS011;69563;37.974;23.708;2023-07-29T07:00:37;6.70;;;3.40;;
80253;SDS011;69563;37.974;23.708;2023-07-29T07:03:03;6.90;;;3.00;;
80253;SDS011;69563;37.974;23.708;2023-07-29T07:05:29;7.00;;;3.20;;
80253;SDS011;69563;37.974;23.708;2023-07-29T07:07:54;6.55;;;3.28;;
80253;SDS011;69563;37.974;23.708;2023-07-29T07:10:20;6.40;;;3.10;;
80253;SDS011;69563;37.974;23.708;2023-07-29T07:12:46;8.10;;;3.33;;
80253;SDS011;69563;37.974;23.708;2023-07-29T07:15:11;7.43;;;3.25;;
80253;SDS011;69563;37.974;23.708;2023-07-29T07:17:37;7.10;;;3.08;;
80253;SDS011;69563;37.974;23.708;2023-07-29T07:20:03;6.38;;;3.05;;
80253;SDS011;69563;37.974;23.708;2023-07-29T07:22:29;6.97;;;3.10;;
80253;SDS011;69563;37.974;23.708;2023-07-29T07:24:54;6.88;;;3.17;;
80253;SDS011;69563;37.974;23.708;2023-07-29T07:27:20;6.78;;;3.10;;
80253;SDS011;69563;37.974;23.708;2023-07-29T07:29:46;7.47;;;3.25;;
80253;SDS011;69563;37.974;23.708;2023-07-29T07:32:12;6.20;;;3.15;;
80253;SDS011;69563;37.974;23.708;2023-07-29T07:34:37;6.15;;;3.55;;
80253;SDS011;69563;37.974;23.708;2023-07-29T07:37:03;7.30;;;3.28;;
80253;SDS011;69563;37.974;23.708;2023-07-29T07:39:29;7.68;;;3.30;;
80253;SDS011;69563;37.974;23.708;2023-07-29T07:41:56;6.38;;;3.22;;
80253;SDS011;69563;37.974;23.708;2023-07-29T07:44:22;6.28;;;3.63;;
80253;SDS011;69563;37.974;23.708;2023-07-29T07:46:47;8.50;;;3.20;;
80253;SDS011;69563;37.974;23.708;2023-07-29T07:49:13;6.47;;;3.50;;
80253;SDS011;69563;37.974;23.708;2023-07-29T07:51:39;8.43;;;3.60;;
80253;SDS011;69563;37.974;23.708;2023-07-29T07:54:05;7.22;;;3.05;;
80253;SDS011;69563;37.974;23.708;2023-07-29T07:56:31;6.57;;;3.13;;
80253;SDS011;69563;37.974;23.708;2023-07-29T07:58:57;7.75;;;3.30;;
80253;SDS011;69563;37.974;23.708;2023-07-29T08:01:22;6.32;;;3.40;;
80253;SDS011;69563;37.974;23.708;2023-07-29T08:03:48;7.55;;;3.28;;
80253;SDS011;69563;37.974;23.708;2023-07-29T08:06:14;6.25;;;3.35;;
80253;SDS011;69563;37.974;23.708;2023-07-29T08:08:39;5.68;;;3.28;;
80253;SDS011;69563;37.974;23.708;2023-07-29T08:11:05;8.70;;;3.47;;
80253;SDS011;69563;37.974;23.708;2023-07-29T08:13:31;11.90;;;3.10;;
80253;SDS011;69563;37.974;23.708;2023-07-29T08:15:56;8.80;;;3.30;;
80253;SDS011;69563;37.974;23.708;2023-07-29T08:18:22;5.90;;;3.08;;
80253;SDS011;69563;37.974;23.708;2023-07-29T08:20:52;7.63;;;3.45;;
80253;SDS011;69563;37.974;23.708;2023-07-29T08:23:19;6.45;;;3.25;;
80253;SDS011;69563;37.974;23.708;2023-07-29T08:25:50;5.65;;;2.90;;
80253;SDS011;69563;37.974;23.708;2023-07-29T08:28:21;7.00;;;3.13;;
80253;SDS011;69563;37.974;23.708;2023-07-29T08:30:47;7.53;;;2.97;;
80253;SDS011;69563;37.974;23.708;2023-07-29T08:33:13;9.70;;;3.10;;
80253;SDS011;69563;37.974;23.708;2023-07-29T08:35:38;6.00;;;2.97;;
80253;SDS011;69563;37.974;23.708;2023-07-29T08:38:04;9.20;;;3.30;;
80253;SDS011;69563;37.974;23.708;2023-07-29T08:40:30;7.78;;;2.97;;
80253;SDS011;69563;37.974;23.708;2023-07-29T08:42:59;9.15;;;3.30;;
80253;SDS011;69563;37.974;23.708;2023-07-29T08:45:29;6.82;;;2.85;;
80253;SDS011;69563;37.974;23.708;2023-07-29T08:47:59;7.30;;;3.20;;
80253;SDS011;69563;37.974;23.708;2023-07-29T08:50:32;5.55;;;2.95;;
80253;SDS011;69563;37.974;23.708;2023-07-29T08:52:58;4.85;;;3.00;;
80253;SDS011;69563;37.974;23.708;2023-07-29T08:55:25;6.43;;;3.20;;
80253;SDS011;69563;37.974;23.708;2023-07-29T08:57:52;5.78;;;3.08;;
80253;SDS011;69563;37.974;23.708;2023-07-29T09:00:18;5.72;;;3.00;;
80253;SDS011;69563;37.974;23.708;2023-07-29T09:02:45;8.95;;;3.10;;
80253;SDS011;69563;37.974;23.708;2023-07-29T09:05:10;6.28;;;2.97;;
80253;SDS011;69563;37.974;23.708;2023-07-29T09:07:36;4.93;;;2.88;;
80253;SDS011;69563;37.974;23.708;2023-07-29T09:10:03;5.13;;;3.15;;
80253;SDS011;69563;37.974;23.708;2023-07-29T09:12:29;5.57;;;3.10;;
80253;SDS011;69563;37.974;23.708;2023-07-29T09:14:55;6.90;;;3.03;;
80253;SDS011;69563;37.974;23.708;2023-07-29T09:17:21;8.65;;;3.03;;
80253;SDS011;69563;37.974;23.708;2023-07-29T09:19:50;5.50;;;2.80;;
80253;SDS011;69563;37.974;23.708;2023-07-29T09:22:19;5.45;;;2.92;;
80253;SDS011;69563;37.974;23.708;2023-07-29T09:24:46;5.50;;;3.10;;
80253;SDS011;69563;37.974;23.708;2023-07-29T09:27:23;6.00;;;2.83;;
80253;SDS011;69563;37.974;23.708;2023-07-29T09:29:50;5.78;;;2.90;;
80253;SDS011;69563;37.974;23.708;2023-07-29T09:32:17;4.97;;;2.78;;
80253;SDS011;69563;37.974;23.708;2023-07-29T09:34:47;5.10;;;3.17;;
80253;SDS011;69563;37.974;23.708;2023-07-29T09:37:17;4.38;;;2.80;;
80253;SDS011;69563;37.974;23.708;2023-07-29T09:39:46;4.75;;;3.05;;
80253;SDS011;69563;37.974;23.708;2023-07-29T09:42:17;5.50;;;3.08;;
80253;SDS011;69563;37.974;23.708;2023-07-29T09:44:48;5.05;;;3.10;;
80253;SDS011;69563;37.974;23.708;2023-07-29T09:47:21;7.00;;;3.05;;
80253;SDS011;69563;37.974;23.708;2023-07-29T09:49:51;4.70;;;2.88;;
80253;SDS011;69563;37.974;23.708;2023-07-29T09:52:18;4.43;;;2.85;;
80253;SDS011;69563;37.974;23.708;2023-07-29T09:54:45;4.45;;;2.50;;
80253;SDS011;69563;37.974;23.708;2023-07-29T09:57:14;4.47;;;2.88;;
80253;SDS011;69563;37.974;23.708;2023-07-29T09:59:43;4.93;;;2.83;;
80253;SDS011;69563;37.974;23.708;2023-07-29T10:02:19;6.40;;;3.13;;
80253;SDS011;69563;37.974;23.708;2023-07-29T10:04:46;5.47;;;3.08;;
80253;SDS011;69563;37.974;23.708;2023-07-29T10:07:12;6.53;;;3.00;;
80253;SDS011;69563;37.974;23.708;2023-07-29T10:09:38;5.70;;;2.92;;
80253;SDS011;69563;37.974;23.708;2023-07-29T10:12:05;5.13;;;3.15;;
80253;SDS011;69563;37.974;23.708;2023-07-29T10:14:32;5.40;;;2.88;;
80253;SDS011;69563;37.974;23.708;2023-07-29T10:16:58;4.47;;;2.78;;
80253;SDS011;69563;37.974;23.708;2023-07-29T10:19:25;4.75;;;3.20;;
80253;SDS011;69563;37.974;23.708;2023-07-29T10:21:52;4.47;;;2.78;;
80253;SDS011;69563;37.974;23.708;2023-07-29T10:24:22;4.45;;;2.70;;
80253;SDS011;69563;37.974;23.708;2023-07-29T10:26:56;6.15;;;2.95;;
80253;SDS011;69563;37.974;23.708;2023-07-29T10:29:24;5.13;;;3.20;;
80253;SDS011;69563;37.974;23.708;2023-07-29T10:31:53;5.53;;;2.90;;
80253;SDS011;69563;37.974;23.708;2023-07-29T10:34:22;6.82;;;3.20;;
80253;SDS011;69563;37.974;23.708;2023-07-29T10:36:49;6.57;;;3.10;;
80253;SDS011;69563;37.974;23.708;2023-07-29T10:39:16;6.38;;;3.30;;
80253;SDS011;69563;37.974;23.708;2023-07-29T10:41:58;6.25;;;3.40;;
80253;SDS011;69563;37.974;23.708;2023-07-29T10:49:39;6.20;;;2.92;;
80253;SDS011;69563;37.974;23.708;2023-07-29T10:52:06;5.78;;;3.13;;
80253;SDS011;69563;37.974;23.708;2023-07-29T10:54:41;5.03;;;3.08;;
80253;SDS011;69563;37.974;23.708;2023-07-29T10:57:14;4.97;;;3.22;;
80253;SDS011;69563;37.974;23.708;2023-07-29T10:59:42;5.78;;;3.30;;
80253;SDS011;69563;37.974;23.708;2023-07-29T11:02:20;6.53;;;3.50;;
80253;SDS011;69563;37.974;23.708;2023-07-29T11:04:53;6.53;;;3.75;;
80253;SDS011;69563;37.974;23.708;2023-07-29T11:07:19;6.45;;;3.55;;
80253;SDS011;69563;37.974;23.708;2023-07-29T11:09:52;6.85;;;3.60;;
80253;SDS011;69563;37.974;23.708;2023-07-29T11:15:11;4.53;;;3.25;;
80253;SDS011;69563;37.974;23.708;2023-07-29T11:17:54;6.72;;;3.63;;
80253;SDS011;69563;37.974;23.708;2023-07-29T11:20:27;7.65;;;3.65;;
80253;SDS011;69563;37.974;23.708;2023-07-29T11:22:55;6.90;;;3.67;;
80253;SDS011;69563;37.974;23.708;2023-07-29T11:25:22;6.68;;;3.42;;
80253;SDS011;69563;37.974;23.708;2023-07-29T11:27:50;6.80;;;3.50;;
80253;SDS011;69563;37.974;23.708;2023-07-29T11:30:17;6.82;;;3.50;;
80253;SDS011;69563;37.974;23.708;2023-07-29T11:32:43;8.00;;;3.80;;
80253;SDS011;69563;37.974;23.708;2023-07-29T11:35:17;6.20;;;3.63;;
80253;SDS011;69563;37.974;23.708;2023-07-29T11:37:44;6.00;;;3.88;;
80253;SDS011;69563;37.974;23.708;2023-07-29T11:40:16;6.85;;;3.88;;
80253;SDS011;69563;37.974;23.708;2023-07-29T11:42:43;6.10;;;3.50;;
80253;SDS011;69563;37.974;23.708;2023-07-29T11:45:10;8.32;;;3.50;;
80253;SDS011;69563;37.974;23.708;2023-07-29T11:47:36;6.72;;;3.80;;
80253;SDS011;69563;37.974;23.708;2023-07-29T11:50:03;6.32;;;3.80;;
80253;SDS011;69563;37.974;23.708;2023-07-29T11:52:31;5.65;;;3.40;;
80253;SDS011;69563;37.974;23.708;2023-07-29T11:54:58;6.47;;;3.55;;
80253;SDS011;69563;37.974;23.708;2023-07-29T11:57:25;6.05;;;3.83;;
80253;SDS011;69563;37.974;23.708;2023-07-29T11:59:51;4.93;;;3.88;;
80253;SDS011;69563;37.974;23.708;2023-07-29T12:02:19;5.88;;;3.55;;
80253;SDS011;69563;37.974;23.708;2023-07-29T12:04:46;6.57;;;3.70;;
80253;SDS011;69563;37.974;23.708;2023-07-29T12:07:13;5.25;;;3.28;;
80253;SDS011;69563;37.974;23.708;2023-07-29T12:09:40;6.05;;;3.53;;
80253;SDS011;69563;37.974;23.708;2023-07-29T12:12:07;4.88;;;3.45;;
80253;SDS011;69563;37.974;23.708;2023-07-29T12:14:33;6.22;;;3.50;;
80253;SDS011;69563;37.974;23.708;2023-07-29T12:17:00;6.47;;;3.90;;
80253;SDS011;69563;37.974;23.708;2023-07-29T12:19:34;7.13;;;3.42;;
80253;SDS011;69563;37.974;23.708;2023-07-29T12:22:01;5.13;;;3.30;;
80253;SDS011;69563;37.974;23.708;2023-07-29T12:24:29;5.43;;;3.65;;
80253;SDS011;69563;37.974;23.708;2023-07-29T12:26:56;4.97;;;3.33;;
80253;SDS011;69563;37.974;23.708;2023-07-29T12:29:21;5.95;;;3.60;;
80253;SDS011;69563;37.974;23.708;2023-07-29T12:31:47;5.80;;;3.78;;
80253;SDS011;69563;37.974;23.708;2023-07-29T12:34:20;6.93;;;3.17;;
80253;SDS011;69563;37.974;23.708;2023-07-29T12:36:50;4.82;;;3.40;;
80253;SDS011;69563;37.974;23.708;2023-07-29T12:42:01;5.45;;;3.55;;
80253;SDS011;69563;37.974;23.708;2023-07-29T12:44:32;6.38;;;3.65;;
80253;SDS011;69563;37.974;23.708;2023-07-29T12:47:00;5.35;;;3.25;;
80253;SDS011;69563;37.974;23.708;2023-07-29T12:49:28;6.25;;;3.20;;
80253;SDS011;69563;37.974;23.708;2023-07-29T12:51:54;5.57;;;3.20;;
80253;SDS011;69563;37.974;23.708;2023-07-29T12:54:21;4.90;;;3.25;;
80253;SDS011;69563;37.974;23.708;2023-07-29T12:56:47;5.95;;;3.45;;
80253;SDS011;69563;37.974;23.708;2023-07-29T12:59:13;4.72;;;3.30;;
80253;SDS011;69563;37.974;23.708;2023-07-29T13:01:38;5.78;;;3.55;;
80253;SDS011;69563;37.974;23.708;2023-07-29T13:04:04;5.38;;;3.47;;
80253;SDS011;69563;37.974;23.708;2023-07-29T13:06:30;5.63;;;3.28;;
80253;SDS011;69563;37.974;23.708;2023-07-29T13:08:56;4.28;;;3.28;;
80253;SDS011;69563;37.974;23.708;2023-07-29T13:11:21;5.47;;;3.50;;
80253;SDS011;69563;37.974;23.708;2023-07-29T13:13:47;4.53;;;3.30;;
80253;SDS011;69563;37.974;23.708;2023-07-29T13:16:13;5.25;;;3.22;;
80253;SDS011;69563;37.974;23.708;2023-07-29T13:18:38;5.32;;;3.33;;
80253;SDS011;69563;37.974;23.708;2023-07-29T13:21:05;4.38;;;3.33;;
80253;SDS011;69563;37.974;23.708;2023-07-29T13:23:31;4.53;;;3.15;;
80253;SDS011;69563;37.974;23.708;2023-07-29T13:25:57;4.32;;;3.33;;
80253;SDS011;69563;37.974;23.708;2023-07-29T13:28:22;4.95;;;3.30;;
80253;SDS011;69563;37.974;23.708;2023-07-29T13:30:48;5.00;;;3.35;;
80253;SDS011;69563;37.974;23.708;2023-07-29T13:33:14;4.63;;;3.25;;
80253;SDS011;69563;37.974;23.708;2023-07-29T13:35:40;5.88;;;3.08;;
80253;SDS011;69563;37.974;23.708;2023-07-29T13:38:06;5.22;;;3.20;;
80253;SDS011;69563;37.974;23.708;2023-07-29T13:40:32;5.15;;;3.17;;
80253;SDS011;69563;37.974;23.708;2023-07-29T13:42:57;4.57;;;3.00;;
80253;SDS011;69563;37.974;23.708;2023-07-29T13:45:23;5.38;;;3.20;;
80253;SDS011;69563;37.974;23.708;2023-07-29T13:47:49;4.63;;;3.00;;
80253;SDS011;69563;37.974;23.708;2023-07-29T13:50:15;5.35;;;3.08;;
80253;SDS011;69563;37.974;23.708;2023-07-29T13:52:41;4.78;;;2.90;;
80253;SDS011;69563;37.974;23.708;2023-07-29T13:55:07;4.28;;;3.03;;
80253;SDS011;69563;37.974;23.708;2023-07-29T13:57:33;6.10;;;3.28;;
80253;SDS011;69563;37.974;23.708;2023-07-29T13:59:59;3.72;;;2.88;;
80253;SDS011;69563;37.974;23.708;2023-07-29T14:02:24;5.18;;;2.88;;
80253;SDS011;69563;37.974;23.708;2023-07-29T14:04:53;3.67;;;2.80;;
80253;SDS011;69563;37.974;23.708;2023-07-29T14:07:19;4.00;;;2.80;;
80253;SDS011;69563;37.974;23.708;2023-07-29T14:09:45;4.57;;;2.97;;
80253;SDS011;69563;37.974;23.708;2023-07-29T14:12:11;4.85;;;3.00;;
80253;SDS011;69563;37.974;23.708;2023-07-29T14:14:39;5.35;;;2.92;;
80253;SDS011;69563;37.974;23.708;2023-07-29T14:17:06;5.07;;;2.92;;
80253;SDS011;69563;37.974;23.708;2023-07-29T14:19:33;3.72;;;2.85;;
80253;SDS011;69563;37.974;23.708;2023-07-29T14:21:59;4.35;;;2.90;;
80253;SDS011;69563;37.974;23.708;2023-07-29T14:24:25;4.65;;;2.83;;
80253;SDS011;69563;37.974;23.708;2023-07-29T14:26:51;4.13;;;2.88;;
80253;SDS011;69563;37.974;23.708;2023-07-29T14:29:16;4.38;;;2.80;;
80253;SDS011;69563;37.974;23.708;2023-07-29T14:31:42;4.78;;;2.90;;
80253;SDS011;69563;37.974;23.708;2023-07-29T14:34:08;5.80;;;3.00;;
80253;SDS011;69563;37.974;23.708;2023-07-29T14:36:34;4.32;;;2.78;;
80253;SDS011;69563;37.974;23.708;2023-07-29T14:39:00;4.78;;;2.80;;
80253;SDS011;69563;37.974;23.708;2023-07-29T14:41:26;4.88;;;2.67;;
80253;SDS011;69563;37.974;23.708;2023-07-29T14:43:51;4.38;;;3.00;;
80253;SDS011;69563;37.974;23.708;2023-07-29T14:46:17;6.22;;;3.10;;
80253;SDS011;69563;37.974;23.708;2023-07-29T14:48:43;5.57;;;2.60;;